1956 01W:SARAH (1956081N02154)


On this page: IBTrACS data - Map and Plots - Positions - Intensities - Original source data

Summary

Start Mar 21
End Apr 5
Basin WP
LMI 125 kt
Sources jtwc_wp
tokyo
cma
td9636
td9635
ds824_wp
In WMO? Yes
Previous storm 1956 27S (SI)
Previous in basin 1956 MISSING (WP)
Concurrent storms 1956 27S (SI)
1956 01W (WP)
1956 28P (SP)
1956 29S (SI)
1956 30S (SI)
1956 31P (SP)
1956 MISSING (SP)
1956 33P (SP)
Next in basin 1956 02W (WP)
Next storm 1956 28P (SP)

top of page IBTrACS Data: File Access

No storm imagery available

top of page Plots:

Map of storm track will not appear if FTP is down
Time series of cyclone Maximum Sustained Wind will not appear if FTP is down
Time series of cyclone Minimum Central Pressure will not appear if FTP is down

top of page Track Data:Position

jtwc_wp tokyo cma td9636 td9635 ds824_wp
Date Lat Lon Lat Lon Lat Lon Lat Lon Lat Lon Lat Lon
1956-03-21 06:00:00 1.7 153.9 1.7 153.9 1.7 153.9
1956-03-21 12:00:00 1.8 153.4 1.8 153.4 1.8 153.4 1.8 153.4
1956-03-21 18:00:00 2.1 153.1 2.0 153.1 2.1 153.1 2.1 153.1
1956-03-22 00:00:00 2.2 152.7 2.2 152.7 2.2 152.7 2.2 152.7
1956-03-22 06:00:00 2.3 152.2 2.3 152.2 2.3 152.2 2.3 152.2
1956-03-22 12:00:00 2.3 151.6 2.3 151.6 2.3 151.6 2.3 151.6
1956-03-22 18:00:00 2.4 151.1 2.4 151.1 2.4 151.1 2.4 151.1
1956-03-23 00:00:00 2.5 150.5 2.5 150.5 2.5 150.5 2.5 150.5
1956-03-23 06:00:00 2.5 149.9 2.4 150.3 2.4 150.3 2.5 149.8 2.5 149.9 2.5 149.9
1956-03-23 12:00:00 2.6 149.1 2.9 149.7 2.9 149.5 2.6 149.1 2.6 149.1 2.6 149.1
1956-03-23 18:00:00 2.8 148.3 3.3 148.8 3.3 148.8 2.8 148.4 2.8 148.3 2.8 148.3
1956-03-24 00:00:00 3.0 147.7 3.8 147.8 3.7 147.8 3.0 147.7 3.0 147.7 3.0 147.7
1956-03-24 06:00:00 3.3 146.8 4.2 146.7 4.2 146.7 3.3 146.8 3.3 146.8 3.3 146.8
1956-03-24 12:00:00 3.7 145.8 4.5 145.8 4.4 145.7 3.7 145.8 3.7 145.8 3.7 145.8
1956-03-24 18:00:00 4.2 145.0 4.8 144.9 4.7 144.8 4.3 144.8 4.2 145.0 4.2 145.0
1956-03-25 00:00:00 4.9 144.0 4.9 144.0 4.8 144.1 4.9 144.0 4.9 144.0 4.9 144.0
1956-03-25 06:00:00 5.2 143.6 4.9 143.7 4.9 143.8 5.3 143.4 5.2 143.6 5.2 143.6
1956-03-25 12:00:00 5.5 143.0 5.8 142.6 5.1 143.3 5.5 143.0 5.5 143.0 5.5 143.0
1956-03-25 18:00:00 5.7 142.5 5.5 142.5 5.5 142.5 5.7 142.5 5.7 142.5 5.7 142.5
1956-03-26 00:00:00 6.0 142.0 5.8 141.9 5.8 141.9 6.0 142.0 6.0 142.0 6.0 142.0
1956-03-26 06:00:00 6.3 141.3 6.1 141.3 6.2 141.3 6.4 141.4 6.3 141.3 6.3 141.3
1956-03-26 12:00:00 6.9 140.9 7.0 141.2 6.8 140.9 6.9 140.9 6.9 140.9 6.9 140.9
1956-03-26 18:00:00 7.3 140.5 7.6 140.7 7.5 140.6 7.4 140.6 7.3 140.5 7.3 140.5
1956-03-27 00:00:00 8.0 140.2 7.9 140.1 7.9 140.2 8.0 140.2 8.0 140.2 8.0 140.2
1956-03-27 06:00:00 8.8 139.7 8.7 139.5 8.8 139.5 8.8 139.6 8.8 139.7 8.8 139.7
jtwc_wp tokyo cma td9636 td9635 ds824_wp
1956-03-27 12:00:00 9.6 138.8 9.6 138.2 9.7 138.2 9.6 138.8 9.6 138.8 9.6 138.8
1956-03-27 18:00:00 10.0 138.0 10.0 137.6 10.1 137.6 10.1 138.0 10.0 138.0 10.0 138.0
1956-03-28 00:00:00 10.5 137.1 10.3 137.2 10.5 137.1 10.5 137.1 10.5 137.1 10.5 137.1
1956-03-28 06:00:00 10.9 136.1 11.0 136.0 10.9 136.1 10.9 136.2 10.9 136.1 10.9 136.1
1956-03-28 12:00:00 11.3 135.2 11.3 135.0 11.3 135.1 11.3 135.2 11.3 135.2 11.3 135.2
1956-03-28 18:00:00 11.7 134.3 11.6 134.2 11.7 134.2 11.7 134.2 11.7 134.3 11.7 134.3
1956-03-29 00:00:00 12.0 133.2 11.8 133.3 11.9 133.4 12.0 133.2 12.0 133.2 12.0 133.2
1956-03-29 06:00:00 12.2 132.3 12.1 132.5 12.1 132.5 12.3 132.2 12.2 132.3 12.2 132.3
1956-03-29 12:00:00 12.6 131.2 12.5 131.3 12.5 131.3 12.6 131.2 12.6 131.2 12.6 131.2
1956-03-29 18:00:00 13.0 130.0 13.0 130.0 13.0 130.0 13.1 130.1 13.0 130.0 13.0 130.0
1956-03-30 00:00:00 13.6 128.8 13.5 128.6 13.6 128.6 13.6 128.8 13.6 128.8 13.6 128.8
1956-03-30 06:00:00 14.1 127.3 14.1 127.2 14.0 127.3 14.1 127.4 14.1 127.3 14.1 127.3
1956-03-30 12:00:00 14.6 126.1 14.5 126.0 14.4 126.3 14.6 126.1 14.6 126.1 14.6 126.1
1956-03-30 18:00:00 14.8 125.2 14.8 125.2 14.8 125.4 14.9 125.3 14.8 125.2 14.8 125.2
1956-03-31 00:00:00 15.0 124.8 15.1 124.8 15.1 124.9 15.0 124.8 15.0 124.8 15.0 124.8
1956-03-31 06:00:00 15.2 124.7 15.3 124.7 15.3 124.9 15.2 124.6 15.2 124.7 15.2 124.7
1956-03-31 12:00:00 15.3 124.7 15.6 124.9 15.7 124.9 15.3 124.7 15.3 124.7 15.3 124.7
1956-03-31 18:00:00 15.5 124.8 15.7 124.8 15.7 124.9 15.5 124.7 15.5 124.8 15.5 124.8
1956-04-01 00:00:00 15.6 124.9 15.5 124.7 15.7 124.9 15.6 124.9 15.6 124.9 15.6 124.9
1956-04-01 06:00:00 15.7 125.0 15.7 124.7 15.7 124.9 15.7 125.2 15.7 125.0 15.7 125.0
1956-04-01 12:00:00 15.8 125.6 15.7 125.3 15.7 125.3 15.8 125.6 15.8 125.6 15.8 125.6
1956-04-01 18:00:00 15.8 126.3 15.5 126.0 15.6 126.0 15.8 126.2 15.8 126.3 15.8 126.3
1956-04-02 00:00:00 15.6 127.0 15.5 126.7 15.5 126.8 15.6 127.0 15.6 127.0 15.6 127.0
1956-04-02 06:00:00 15.3 127.8 15.2 127.6 15.2 127.6 15.3 127.8 15.3 127.8 15.3 127.8
jtwc_wp tokyo cma td9636 td9635 ds824_wp
1956-04-02 12:00:00 14.9 128.7 14.8 128.2 14.7 128.4 14.9 128.7 14.9 128.7 14.9 128.7
1956-04-02 18:00:00 14.5 129.5 14.4 129.0 14.3 129.2 14.4 129.5 14.5 129.5 14.5 129.5
1956-04-03 00:00:00 13.8 130.2 13.9 129.9 13.9 130.0 13.8 130.2 13.8 130.2 13.8 130.2
1956-04-03 06:00:00 13.5 130.5 13.4 130.9 13.5 130.7 13.4 130.6 13.5 130.5 13.5 130.5
1956-04-03 12:00:00 13.0 130.9 13.3 131.5 13.2 131.4 13.0 130.9 13.0 130.9 13.0 130.9
1956-04-03 18:00:00 12.4 131.1 13.0 132.0 13.0 132.0 12.4 131.2 12.4 131.1 12.4 131.1
1956-04-04 00:00:00 11.9 131.3 11.9 131.3 11.9 131.3 11.9 131.3
1956-04-04 06:00:00 11.7 130.2 11.5 131.2 11.7 130.2 11.7 130.2
1956-04-04 12:00:00 11.3 131.0 11.3 131.0 11.3 131.0 11.3 131.0
1956-04-04 18:00:00 11.1 131.2 11.0 131.1 11.1 131.2 11.1 131.2
1956-04-05 00:00:00 10.9 131.3 10.9 131.3 10.9 131.3 10.9 131.3
1956-04-05 06:00:00 11.1 131.2 11.0 131.3 11.1 131.2 11.1 131.2
1956-04-05 12:00:00 11.2 131.1 11.2 131.1 11.2 131.1 11.2 131.1
1956-04-05 18:00:00 11.2 131.0 11.2 131.0 11.2 131.0

top of pageTrack Data:Intensity

jtwc_wp tokyo cma td9636 td9635 ds824_wp
Date Wind Pres Wind Pres Wind Pres Wind Pres Wind Pres Wind Pres
1956-03-21 06:00:00 25. 25. 1005. 25.
1956-03-21 12:00:00 25. 25. 25. 1004. 25.
1956-03-21 18:00:00 25. 25. 25. 1003. 25.
1956-03-22 00:00:00 35. 35. 35. 1002. 35.
1956-03-22 06:00:00 35. 35. 35. 1001. 35.
1956-03-22 12:00:00 35. 35. 35. 1001. 35.
1956-03-22 18:00:00 35. 35. 35. 1000. 35.
1956-03-23 00:00:00 35. 35. 35. 999. 35.
1956-03-23 06:00:00 45. 998. 49. 998. 35. 45. 997. 45.
1956-03-23 12:00:00 45. 995. 49. 995. 45. 45. 993. 45.
1956-03-23 18:00:00 45. 992. 58. 992. 45. 45. 989. 45.
1956-03-24 00:00:00 45. 990. 68. 988. 45. 45. 985. 45.
1956-03-24 06:00:00 75. 985. 68. 986. 45. 75. 979. 75.
1956-03-24 12:00:00 75. 985. 68. 985. 75. 75. 966. 75.
1956-03-24 18:00:00 75. 985. 78. 984. 75. 75. 947. 75.
1956-03-25 00:00:00 125. 983. 78. 984. 125. 125. 941. 125.
1956-03-25 06:00:00 90. 983. 87. 983. 125. 90. 953. 90.
1956-03-25 12:00:00 60. 987. 78. 987. 60. 60. 968. 60.
1956-03-25 18:00:00 90. 992. 78. 991. 90. 90. 984. 90.
1956-03-26 00:00:00 75. 996. 68. 995. 75. 75. 994. 75.
1956-03-26 06:00:00 75. 996. 68. 995. 75. 75. 990. 75.
1956-03-26 12:00:00 75. 996. 68. 996. 75. 75. 993. 75.
1956-03-26 18:00:00 75. 996. 68. 998. 75. 75. 997. 75.
1956-03-27 00:00:00 75. 996. 68. 996. 75. 75. 996. 75.
1956-03-27 06:00:00 90. 990. 78. 987. 75. 90. 990. 90.
jtwc_wp tokyo cma td9636 td9635 ds824_wp
1956-03-27 12:00:00 90. 990. 78. 987. 90. 90. 990. 90.
1956-03-27 18:00:00 90. 990. 87. 987. 90. 90. 990. 90.
1956-03-28 00:00:00 90. 990. 87. 987. 90. 90. 988. 90.
1956-03-28 06:00:00 90. 990. 87. 985. 90. 90. 985. 90.
1956-03-28 12:00:00 90. 985. 87. 982. 90. 90. 981. 90.
1956-03-28 18:00:00 90. 980. 97. 978. 90. 90. 978. 90.
1956-03-29 00:00:00 100. 975. 97. 975. 100. 100. 975. 100.
1956-03-29 06:00:00 85. 975. 107. 974. 100. 85. 979. 85.
1956-03-29 12:00:00 85. 975. 117. 973. 85. 85. 980. 85.
1956-03-29 18:00:00 85. 975. 117. 971. 85. 85. 980. 85.
1956-03-30 00:00:00 85. 970. 117. 970. 85. 85. 981. 85.
1956-03-30 06:00:00 85. 970. 107. 979. 85. 85. 982. 85.
1956-03-30 12:00:00 85. 980. 97. 983. 85. 85. 983. 85.
1956-03-30 18:00:00 85. 980. 87. 986. 85. 85. 985. 85.
1956-03-31 00:00:00 80. 990. 87. 987. 80. 80. 986. 80.
1956-03-31 06:00:00 80. 990. 78. 988. 80. 80. 987. 80.
1956-03-31 12:00:00 80. 995. 78. 993. 80. 80. 989. 80.
1956-03-31 18:00:00 80. 995. 68. 995. 80. 80. 990. 80.
1956-04-01 00:00:00 65. 1000. 68. 998. 65. 65. 992. 65.
1956-04-01 06:00:00 65. 1000. 68. 996. 65. 65. 993. 65.
1956-04-01 12:00:00 65. 1000. 68. 996. 65. 65. 994. 65.
1956-04-01 18:00:00 65. 1000. 68. 996. 65. 65. 996. 65.
1956-04-02 00:00:00 60. 1000. 68. 996. 60. 60. 997. 60.
1956-04-02 06:00:00 60. 1000. 68. 995. 60. 60. 1000. 60.
jtwc_wp tokyo cma td9636 td9635 ds824_wp
1956-04-02 12:00:00 60. 1002. 58. 998. 60. 60. 1002. 60.
1956-04-02 18:00:00 60. 1002. 49. 1002. 60. 60. 1004. 60.
1956-04-03 00:00:00 25. 1004. 39. 1004. 25. 25. 1006. 25.
1956-04-03 06:00:00 25. 1004. 29. 1006. 25. 25. 1004. 25.
1956-04-03 12:00:00 25. 1006. 29. 1006. 25. 25. 1004. 25.
1956-04-03 18:00:00 25. 1006. 1006. 25. 25. 1004. 25.
1956-04-04 00:00:00 25. 25. 25. 1004. 25.
1956-04-04 06:00:00 25. 25. 25. 1004. 25.
1956-04-04 12:00:00 25. 25. 25. 1003. 25.
1956-04-04 18:00:00 30. 25. 30. 1002. 30.
1956-04-05 00:00:00 35. 35. 35. 1001. 35.
1956-04-05 06:00:00 35. 35. 35. 1002. 35.
1956-04-05 12:00:00 35. 35. 35. 1004. 35.
1956-04-05 18:00:00 25. 25. 1006. 25.

top of page Links to source data

Source Source file Format
jtwc_wp bwp011956.txt ATCF
tokyo bst_all.txt:Line=4198:SARAH:5601 JMA text table
cma CH1956BST.txt:Storm=2:Sarah CMA text table
td9636 cons_worldwide_trop_cyclone_18710101-19891231-003:Line=17276 TD 9636
td9635 typhoons-analogs_19450101-19761231.corrected:Line=463 TD 9635
ds824_wp w_npac.dat:243:01W HURDAT